sensor_id;sensor_type;location;lat;lon;timestamp;pressure;altitude;pressure_sealevel;temperature;humidity
31911;BME280;18457;52.432;16.914;2023-04-22T00:00:41;100557.60;;;12.36;56.05
31911;BME280;18457;52.432;16.914;2023-04-22T00:03:20;100555.72;;;12.32;56.02
31911;BME280;18457;52.432;16.914;2023-04-22T00:05:53;100553.77;;;12.30;55.98
31911;BME280;18457;52.432;16.914;2023-04-22T00:08:25;100550.11;;;12.25;56.14
31911;BME280;18457;52.432;16.914;2023-04-22T00:10:57;100548.51;;;12.24;56.07
31911;BME280;18457;52.432;16.914;2023-04-22T00:13:29;100548.20;;;12.22;56.31
31911;BME280;18457;52.432;16.914;2023-04-22T00:16:03;100541.94;;;12.19;56.22
31911;BME280;18457;52.432;16.914;2023-04-22T00:18:35;100541.05;;;12.12;56.52
31911;BME280;18457;52.432;16.914;2023-04-22T00:21:08;100538.54;;;12.11;56.10
31911;BME280;18457;52.432;16.914;2023-04-22T00:23:40;100540.11;;;12.08;56.49
31911;BME280;18457;52.432;16.914;2023-04-22T00:26:17;100526.13;;;11.96;56.40
31911;BME280;18457;52.432;16.914;2023-04-22T00:28:48;100530.29;;;11.96;56.49
31911;BME280;18457;52.432;16.914;2023-04-22T00:31:21;100515.02;;;11.85;56.47
31911;BME280;18457;52.432;16.914;2023-04-22T00:33:53;100533.09;;;11.93;56.21
31911;BME280;18457;52.432;16.914;2023-04-22T00:36:26;100533.86;;;11.91;56.10
31911;BME280;18457;52.432;16.914;2023-04-22T00:38:58;100528.70;;;11.88;56.10
31911;BME280;18457;52.432;16.914;2023-04-22T00:41:31;100529.21;;;11.89;55.82
31911;BME280;18457;52.432;16.914;2023-04-22T00:44:04;100526.33;;;11.89;55.87
31911;BME280;18457;52.432;16.914;2023-04-22T00:46:37;100526.96;;;11.85;55.64
31911;BME280;18457;52.432;16.914;2023-04-22T00:49:10;100522.20;;;11.81;55.68
31911;BME280;18457;52.432;16.914;2023-04-22T00:51:42;100526.42;;;11.78;55.95
31911;BME280;18457;52.432;16.914;2023-04-22T00:54:14;100526.31;;;11.76;56.21
31911;BME280;18457;52.432;16.914;2023-04-22T00:56:46;100522.11;;;11.71;57.36
31911;BME280;18457;52.432;16.914;2023-04-22T00:59:18;100528.20;;;11.66;57.71
31911;BME280;18457;52.432;16.914;2023-04-22T01:01:51;100526.92;;;11.59;57.35
31911;BME280;18457;52.432;16.914;2023-04-22T01:04:24;100527.54;;;11.49;57.20
31911;BME280;18457;52.432;16.914;2023-04-22T01:06:55;100529.27;;;11.45;58.20
31911;BME280;18457;52.432;16.914;2023-04-22T01:09:28;100529.16;;;11.49;57.34
31911;BME280;18457;52.432;16.914;2023-04-22T01:12:01;100530.62;;;11.49;57.23
31911;BME280;18457;52.432;16.914;2023-04-22T01:14:33;100513.23;;;11.36;58.06
31911;BME280;18457;52.432;16.914;2023-04-22T01:17:06;100530.45;;;11.48;58.19
31911;BME280;18457;52.432;16.914;2023-04-22T01:19:40;100531.89;;;11.49;57.88
31911;BME280;18457;52.432;16.914;2023-04-22T01:22:14;100529.40;;;11.46;57.51
31911;BME280;18457;52.432;16.914;2023-04-22T01:24:47;100531.13;;;11.43;57.08
31911;BME280;18457;52.432;16.914;2023-04-22T01:27:19;100533.19;;;11.40;57.61
31911;BME280;18457;52.432;16.914;2023-04-22T01:29:52;100530.61;;;11.35;57.35
31911;BME280;18457;52.432;16.914;2023-04-22T01:32:24;100530.91;;;11.30;57.20
31911;BME280;18457;52.432;16.914;2023-04-22T01:34:56;100535.66;;;11.28;57.65
31911;BME280;18457;52.432;16.914;2023-04-22T01:37:31;100532.88;;;11.24;58.39
31911;BME280;18457;52.432;16.914;2023-04-22T01:40:03;100532.35;;;11.23;57.94
31911;BME280;18457;52.432;16.914;2023-04-22T01:42:35;100529.60;;;11.18;57.80
31911;BME280;18457;52.432;16.914;2023-04-22T01:45:09;100532.04;;;11.14;58.32
31911;BME280;18457;52.432;16.914;2023-04-22T01:47:42;100528.38;;;11.16;58.04
31911;BME280;18457;52.432;16.914;2023-04-22T01:50:16;100532.59;;;11.13;58.03
31911;BME280;18457;52.432;16.914;2023-04-22T01:52:48;100528.23;;;11.00;59.67
31911;BME280;18457;52.432;16.914;2023-04-22T01:55:21;100527.95;;;11.04;58.97
31911;BME280;18457;52.432;16.914;2023-04-22T01:57:53;100526.75;;;11.01;58.85
31911;BME280;18457;52.432;16.914;2023-04-22T02:00:24;100527.22;;;10.97;58.96
31911;BME280;18457;52.432;16.914;2023-04-22T02:02:57;100524.54;;;10.95;59.27
31911;BME280;18457;52.432;16.914;2023-04-22T02:05:29;100519.63;;;10.88;59.88
31911;BME280;18457;52.432;16.914;2023-04-22T02:08:01;100518.56;;;10.88;59.59
31911;BME280;18457;52.432;16.914;2023-04-22T02:10:34;100521.40;;;10.90;59.89
31911;BME280;18457;52.432;16.914;2023-04-22T02:13:08;100520.86;;;10.83;60.72
31911;BME280;18457;52.432;16.914;2023-04-22T02:15:40;100520.85;;;10.84;60.38
31911;BME280;18457;52.432;16.914;2023-04-22T02:18:13;100516.76;;;10.81;60.47
31911;BME280;18457;52.432;16.914;2023-04-22T02:20:47;100517.05;;;10.76;60.24
31911;BME280;18457;52.432;16.914;2023-04-22T02:23:18;100510.84;;;10.70;60.63
31911;BME280;18457;52.432;16.914;2023-04-22T02:25:52;100513.19;;;10.71;60.61
31911;BME280;18457;52.432;16.914;2023-04-22T02:28:25;100512.35;;;10.68;60.33
31911;BME280;18457;52.432;16.914;2023-04-22T02:30:57;100508.80;;;10.66;60.74
31911;BME280;18457;52.432;16.914;2023-04-22T02:33:29;100506.14;;;10.63;60.94
31911;BME280;18457;52.432;16.914;2023-04-22T02:36:01;100505.35;;;10.65;61.24
31911;BME280;18457;52.432;16.914;2023-04-22T02:38:33;100503.77;;;10.64;61.59
31911;BME280;18457;52.432;16.914;2023-04-22T02:41:05;100504.61;;;10.59;61.09
31911;BME280;18457;52.432;16.914;2023-04-22T02:43:39;100502.52;;;10.56;61.28
31911;BME280;18457;52.432;16.914;2023-04-22T02:46:16;100504.32;;;10.56;60.68
31911;BME280;18457;52.432;16.914;2023-04-22T02:48:48;100505.38;;;10.57;61.09
31911;BME280;18457;52.432;16.914;2023-04-22T02:51:20;100501.23;;;10.56;61.61
31911;BME280;18457;52.432;16.914;2023-04-22T02:53:53;100500.04;;;10.45;62.40
31911;BME280;18457;52.432;16.914;2023-04-22T02:56:25;100500.69;;;10.40;62.36
31911;BME280;18457;52.432;16.914;2023-04-22T02:58:57;100497.11;;;10.39;62.31
31911;BME280;18457;52.432;16.914;2023-04-22T03:01:29;100492.98;;;10.37;62.74
31911;BME280;18457;52.432;16.914;2023-04-22T03:04:03;100492.96;;;10.38;62.64
31911;BME280;18457;52.432;16.914;2023-04-22T03:06:35;100491.63;;;10.41;62.11
31911;BME280;18457;52.432;16.914;2023-04-22T03:09:07;100492.81;;;10.37;62.23
31911;BME280;18457;52.432;16.914;2023-04-22T03:11:40;100495.67;;;10.38;62.42
31911;BME280;18457;52.432;16.914;2023-04-22T03:14:14;100496.84;;;10.34;62.37
31911;BME280;18457;52.432;16.914;2023-04-22T03:16:46;100494.39;;;10.31;63.30
31911;BME280;18457;52.432;16.914;2023-04-22T03:19:19;100493.42;;;10.26;63.29
31911;BME280;18457;52.432;16.914;2023-04-22T03:21:51;100489.64;;;10.25;62.67
31911;BME280;18457;52.432;16.914;2023-04-22T03:24:22;100487.38;;;10.12;63.76
31911;BME280;18457;52.432;16.914;2023-04-22T03:26:55;100491.16;;;10.13;63.01
31911;BME280;18457;52.432;16.914;2023-04-22T03:29:27;100485.36;;;10.14;63.36
31911;BME280;18457;52.432;16.914;2023-04-22T03:31:59;100485.52;;;10.15;62.94
31911;BME280;18457;52.432;16.914;2023-04-22T03:34:32;100483.85;;;10.08;63.57
31911;BME280;18457;52.432;16.914;2023-04-22T03:37:07;100478.89;;;10.03;63.68
31911;BME280;18457;52.432;16.914;2023-04-22T03:39:39;100479.44;;;9.94;64.43
31911;BME280;18457;52.432;16.914;2023-04-22T03:42:14;100480.00;;;9.93;63.91
31911;BME280;18457;52.432;16.914;2023-04-22T03:44:46;100479.15;;;9.99;63.26
31911;BME280;18457;52.432;16.914;2023-04-22T03:47:20;100478.12;;;9.97;63.71
31911;BME280;18457;52.432;16.914;2023-04-22T03:49:56;100479.96;;;9.95;64.33
31911;BME280;18457;52.432;16.914;2023-04-22T03:52:28;100480.66;;;9.96;64.27
31911;BME280;18457;52.432;16.914;2023-04-22T03:55:02;100479.61;;;9.85;64.96
31911;BME280;18457;52.432;16.914;2023-04-22T03:57:36;100479.23;;;9.68;65.55
31911;BME280;18457;52.432;16.914;2023-04-22T04:00:10;100483.05;;;9.66;65.85
31911;BME280;18457;52.432;16.914;2023-04-22T04:02:46;100482.77;;;9.71;65.31
31911;BME280;18457;52.432;16.914;2023-04-22T04:05:21;100488.52;;;9.81;64.77
31911;BME280;18457;52.432;16.914;2023-04-22T04:07:53;100484.99;;;9.68;66.01
31911;BME280;18457;52.432;16.914;2023-04-22T04:10:24;100480.97;;;9.71;65.09
31911;BME280;18457;52.432;16.914;2023-04-22T04:13:05;100478.29;;;9.70;64.33
31911;BME280;18457;52.432;16.914;2023-04-22T04:15:46;100476.30;;;9.70;65.41
31911;BME280;18457;52.432;16.914;2023-04-22T04:18:24;100478.86;;;9.78;64.87
31911;BME280;18457;52.432;16.914;2023-04-22T04:21:16;100472.70;;;9.79;64.44
31911;BME280;18457;52.432;16.914;2023-04-22T04:23:53;100470.33;;;9.81;64.43
31911;BME280;18457;52.432;16.914;2023-04-22T04:26:30;100469.83;;;9.79;65.10
31911;BME280;18457;52.432;16.914;2023-04-22T04:29:11;100476.64;;;9.81;64.41
31911;BME280;18457;52.432;16.914;2023-04-22T04:31:46;100477.74;;;9.79;64.91
31911;BME280;18457;52.432;16.914;2023-04-22T04:34:19;100481.40;;;9.77;64.53
31911;BME280;18457;52.432;16.914;2023-04-22T04:36:51;100473.38;;;9.81;64.45
31911;BME280;18457;52.432;16.914;2023-04-22T04:39:29;100470.50;;;9.80;64.66
31911;BME280;18457;52.432;16.914;2023-04-22T04:42:05;100477.27;;;9.75;65.44
31911;BME280;18457;52.432;16.914;2023-04-22T04:44:45;100467.05;;;9.63;65.51
31911;BME280;18457;52.432;16.914;2023-04-22T04:47:19;100474.23;;;9.65;66.02
31911;BME280;18457;52.432;16.914;2023-04-22T04:49:55;100479.23;;;9.77;64.74
31911;BME280;18457;52.432;16.914;2023-04-22T04:52:30;100481.36;;;9.79;65.56
31911;BME280;18457;52.432;16.914;2023-04-22T04:55:44;100479.01;;;9.70;66.75
31911;BME280;18457;52.432;16.914;2023-04-22T04:58:23;100481.21;;;9.68;66.41
31911;BME280;18457;52.432;16.914;2023-04-22T05:01:08;100480.08;;;9.80;65.36
31911;BME280;18457;52.432;16.914;2023-04-22T05:03:40;100477.06;;;9.86;65.25
31911;BME280;18457;52.432;16.914;2023-04-22T05:06:15;100474.14;;;9.79;66.29
31911;BME280;18457;52.432;16.914;2023-04-22T05:08:54;100476.42;;;9.82;66.01
31911;BME280;18457;52.432;16.914;2023-04-22T05:11:26;100480.36;;;9.84;65.22
31911;BME280;18457;52.432;16.914;2023-04-22T05:14:00;100478.16;;;9.94;65.44
31911;BME280;18457;52.432;16.914;2023-04-22T05:16:36;100478.34;;;10.03;65.10
31911;BME280;18457;52.432;16.914;2023-04-22T05:19:08;100478.20;;;10.11;64.93
31911;BME280;18457;52.432;16.914;2023-04-22T05:21:40;100479.60;;;10.14;64.70
31911;BME280;18457;52.432;16.914;2023-04-22T05:24:12;100479.88;;;10.18;64.59
31911;BME280;18457;52.432;16.914;2023-04-22T05:26:44;100478.60;;;10.19;65.66
31911;BME280;18457;52.432;16.914;2023-04-22T05:29:19;100484.70;;;10.20;65.88
31911;BME280;18457;52.432;16.914;2023-04-22T05:31:51;100485.72;;;10.23;66.04
31911;BME280;18457;52.432;16.914;2023-04-22T05:34:24;100488.00;;;10.26;66.58
31911;BME280;18457;52.432;16.914;2023-04-22T05:36:56;100487.64;;;10.34;65.27
31911;BME280;18457;52.432;16.914;2023-04-22T05:39:28;100486.39;;;10.42;64.67
31911;BME280;18457;52.432;16.914;2023-04-22T05:42:01;100488.84;;;10.45;64.73
31911;BME280;18457;52.432;16.914;2023-04-22T05:44:34;100487.46;;;10.50;64.47
31911;BME280;18457;52.432;16.914;2023-04-22T05:47:06;100482.33;;;10.46;64.91
31911;BME280;18457;52.432;16.914;2023-04-22T05:49:38;100483.92;;;10.47;64.48
31911;BME280;18457;52.432;16.914;2023-04-22T05:52:20;100485.96;;;10.52;64.55
31911;BME280;18457;52.432;16.914;2023-04-22T05:54:59;100486.42;;;10.64;63.99
31911;BME280;18457;52.432;16.914;2023-04-22T05:57:32;100484.40;;;10.73;64.24
31911;BME280;18457;52.432;16.914;2023-04-22T06:00:06;100488.55;;;10.81;63.99
31911;BME280;18457;52.432;16.914;2023-04-22T06:02:42;100484.20;;;10.89;63.24
31911;BME280;18457;52.432;16.914;2023-04-22T06:05:15;100485.38;;;10.92;63.14
31911;BME280;18457;52.432;16.914;2023-04-22T06:07:48;100486.66;;;10.99;62.84
31911;BME280;18457;52.432;16.914;2023-04-22T06:10:19;100489.60;;;11.04;63.05
31911;BME280;18457;52.432;16.914;2023-04-22T06:12:51;100489.77;;;11.05;63.04
31911;BME280;18457;52.432;16.914;2023-04-22T06:15:24;100490.31;;;11.13;62.86
31911;BME280;18457;52.432;16.914;2023-04-22T06:17:56;100492.45;;;11.20;62.75
31911;BME280;18457;52.432;16.914;2023-04-22T06:20:29;100490.16;;;11.26;62.78
31911;BME280;18457;52.432;16.914;2023-04-22T06:23:02;100484.52;;;11.34;62.82
31911;BME280;18457;52.432;16.914;2023-04-22T06:25:35;100487.04;;;11.41;62.51
31911;BME280;18457;52.432;16.914;2023-04-22T06:28:08;100480.36;;;11.40;62.87
31911;BME280;18457;52.432;16.914;2023-04-22T06:30:45;100489.33;;;11.51;62.69
31911;BME280;18457;52.432;16.914;2023-04-22T06:33:20;100478.96;;;11.53;62.55
31911;BME280;18457;52.432;16.914;2023-04-22T06:35:53;100485.87;;;11.65;62.44
31911;BME280;18457;52.432;16.914;2023-04-22T06:38:26;100487.02;;;11.70;62.31
31911;BME280;18457;52.432;16.914;2023-04-22T06:41:15;100484.83;;;11.78;62.23
31911;BME280;18457;52.432;16.914;2023-04-22T06:43:50;100483.15;;;11.85;62.17
31911;BME280;18457;52.432;16.914;2023-04-22T06:46:43;100482.29;;;11.90;61.71
31911;BME280;18457;52.432;16.914;2023-04-22T06:49:25;100481.52;;;11.99;61.47
31911;BME280;18457;52.432;16.914;2023-04-22T06:52:00;100479.25;;;12.08;61.24
31911;BME280;18457;52.432;16.914;2023-04-22T06:54:33;100478.39;;;12.18;60.72
31911;BME280;18457;52.432;16.914;2023-04-22T06:57:06;100478.83;;;12.28;60.46
31911;BME280;18457;52.432;16.914;2023-04-22T06:59:38;100471.50;;;12.37;60.30
31911;BME280;18457;52.432;16.914;2023-04-22T07:02:12;100473.85;;;12.42;60.33
31911;BME280;18457;52.432;16.914;2023-04-22T07:04:46;100476.23;;;12.48;60.60
31911;BME280;18457;52.432;16.914;2023-04-22T07:07:19;100473.14;;;12.54;60.32
31911;BME280;18457;52.432;16.914;2023-04-22T07:09:54;100469.60;;;12.63;60.22
31911;BME280;18457;52.432;16.914;2023-04-22T07:12:29;100473.21;;;12.68;60.03
31911;BME280;18457;52.432;16.914;2023-04-22T07:15:01;100469.80;;;12.73;59.97
31911;BME280;18457;52.432;16.914;2023-04-22T07:17:34;100470.48;;;12.80;59.89
31911;BME280;18457;52.432;16.914;2023-04-22T07:20:08;100469.84;;;12.84;59.17
31911;BME280;18457;52.432;16.914;2023-04-22T07:22:41;100474.09;;;12.92;59.01
31911;BME280;18457;52.432;16.914;2023-04-22T07:25:13;100471.83;;;13.00;59.03
31911;BME280;18457;52.432;16.914;2023-04-22T07:27:46;100472.53;;;13.08;58.41
31911;BME280;18457;52.432;16.914;2023-04-22T07:30:19;100465.00;;;13.10;57.83
31911;BME280;18457;52.432;16.914;2023-04-22T07:32:51;100468.16;;;13.24;57.66
31911;BME280;18457;52.432;16.914;2023-04-22T07:35:23;100468.30;;;13.31;57.83
31911;BME280;18457;52.432;16.914;2023-04-22T07:37:56;100466.77;;;13.38;57.09
31911;BME280;18457;52.432;16.914;2023-04-22T07:40:28;100468.90;;;13.45;56.50
31911;BME280;18457;52.432;16.914;2023-04-22T07:43:00;100465.77;;;13.51;56.32
31911;BME280;18457;52.432;16.914;2023-04-22T07:45:33;100464.52;;;13.55;55.70
31911;BME280;18457;52.432;16.914;2023-04-22T07:48:06;100464.52;;;13.61;55.65
31911;BME280;18457;52.432;16.914;2023-04-22T07:50:38;100465.38;;;13.67;55.44
31911;BME280;18457;52.432;16.914;2023-04-22T07:53:10;100460.58;;;13.75;55.60
31911;BME280;18457;52.432;16.914;2023-04-22T07:55:41;100460.88;;;13.81;55.63
31911;BME280;18457;52.432;16.914;2023-04-22T07:58:14;100458.45;;;13.87;55.27
31911;BME280;18457;52.432;16.914;2023-04-22T08:00:46;100458.38;;;13.94;54.82
31911;BME280;18457;52.432;16.914;2023-04-22T08:03:20;100464.00;;;13.99;54.09
31911;BME280;18457;52.432;16.914;2023-04-22T08:05:52;100460.17;;;14.05;53.54
31911;BME280;18457;52.432;16.914;2023-04-22T08:08:26;100463.79;;;14.10;53.55
31911;BME280;18457;52.432;16.914;2023-04-22T08:10:58;100462.96;;;14.18;53.93
31911;BME280;18457;52.432;16.914;2023-04-22T08:13:31;100455.50;;;14.18;53.51
31911;BME280;18457;52.432;16.914;2023-04-22T08:16:03;100460.73;;;14.29;53.60
31911;BME280;18457;52.432;16.914;2023-04-22T08:18:37;100460.50;;;14.35;53.69
31911;BME280;18457;52.432;16.914;2023-04-22T08:21:09;100460.48;;;14.44;52.81
31911;BME280;18457;52.432;16.914;2023-04-22T08:23:42;100459.73;;;14.55;52.17
31911;BME280;18457;52.432;16.914;2023-04-22T08:26:14;100457.86;;;14.65;51.98
31911;BME280;18457;52.432;16.914;2023-04-22T08:28:46;100456.08;;;14.73;51.99
31911;BME280;18457;52.432;16.914;2023-04-22T08:31:18;100457.59;;;14.76;52.23
31911;BME280;18457;52.432;16.914;2023-04-22T08:33:51;100452.25;;;14.82;51.98
31911;BME280;18457;52.432;16.914;2023-04-22T08:36:23;100452.67;;;14.94;51.47
31911;BME280;18457;52.432;16.914;2023-04-22T08:38:57;100448.31;;;15.03;50.81
31911;BME280;18457;52.432;16.914;2023-04-22T08:41:29;100446.77;;;15.13;50.73
31911;BME280;18457;52.432;16.914;2023-04-22T08:44:03;100444.13;;;15.24;50.93
31911;BME280;18457;52.432;16.914;2023-04-22T08:46:37;100438.20;;;15.27;50.80
31911;BME280;18457;52.432;16.914;2023-04-22T08:49:10;100437.02;;;15.33;50.79
31911;BME280;18457;52.432;16.914;2023-04-22T08:51:44;100436.96;;;15.34;50.35
31911;BME280;18457;52.432;16.914;2023-04-22T08:54:15;100435.53;;;15.37;49.76
31911;BME280;18457;52.432;16.914;2023-04-22T08:56:50;100433.00;;;15.50;47.86
31911;BME280;18457;52.432;16.914;2023-04-22T08:59:24;100433.45;;;15.57;47.93
31911;BME280;18457;52.432;16.914;2023-04-22T09:01:58;100434.85;;;15.62;46.93
31911;BME280;18457;52.432;16.914;2023-04-22T09:04:32;100427.02;;;15.62;45.85
31911;BME280;18457;52.432;16.914;2023-04-22T09:07:05;100433.62;;;15.73;45.36
31911;BME280;18457;52.432;16.914;2023-04-22T09:09:42;100434.56;;;15.97;57.91
31911;BME280;18457;52.432;16.914;2023-04-22T09:12:15;100439.81;;;16.40;70.56
31911;BME280;18457;52.432;16.914;2023-04-22T09:14:50;100441.06;;;16.75;66.87
31911;BME280;18457;52.432;16.914;2023-04-22T09:17:31;100440.14;;;16.94;60.98
31911;BME280;18457;52.432;16.914;2023-04-22T09:20:06;100435.14;;;16.85;46.36
31911;BME280;18457;52.432;16.914;2023-04-22T09:22:44;100431.34;;;16.76;45.07
31911;BME280;18457;52.432;16.914;2023-04-22T09:25:18;100433.41;;;16.82;44.76
31911;BME280;18457;52.432;16.914;2023-04-22T09:27:52;100429.37;;;16.97;43.62
31911;BME280;18457;52.432;16.914;2023-04-22T09:30:27;100429.89;;;17.01;41.58
31911;BME280;18457;52.432;16.914;2023-04-22T09:33:05;100427.02;;;17.04;41.41
31911;BME280;18457;52.432;16.914;2023-04-22T09:35:41;100428.81;;;17.08;42.13
31911;BME280;18457;52.432;16.914;2023-04-22T09:38:13;100424.68;;;17.14;41.91
31911;BME280;18457;52.432;16.914;2023-04-22T09:40:50;100423.64;;;17.24;40.98
31911;BME280;18457;52.432;16.914;2023-04-22T09:43:23;100427.39;;;17.36;40.57
31911;BME280;18457;52.432;16.914;2023-04-22T09:46:00;100421.11;;;17.48;40.29
31911;BME280;18457;52.432;16.914;2023-04-22T09:48:33;100417.22;;;17.60;39.76
31911;BME280;18457;52.432;16.914;2023-04-22T09:51:15;100417.38;;;17.67;39.03
31911;BME280;18457;52.432;16.914;2023-04-22T09:53:57;100416.94;;;17.79;38.40
31911;BME280;18457;52.432;16.914;2023-04-22T09:56:45;100411.77;;;17.86;38.05
31911;BME280;18457;52.432;16.914;2023-04-22T09:59:24;100406.16;;;17.99;37.69
31911;BME280;18457;52.432;16.914;2023-04-22T10:01:59;100403.17;;;18.10;37.96
31911;BME280;18457;52.432;16.914;2023-04-22T10:04:35;100406.94;;;18.31;38.56
31911;BME280;18457;52.432;16.914;2023-04-22T10:07:08;100408.48;;;18.46;36.67
31911;BME280;18457;52.432;16.914;2023-04-22T10:09:58;100400.15;;;18.48;35.73
31911;BME280;18457;52.432;16.914;2023-04-22T10:12:31;100393.78;;;18.51;36.22
31911;BME280;18457;52.432;16.914;2023-04-22T10:15:08;100399.83;;;18.63;36.69
31911;BME280;18457;52.432;16.914;2023-04-22T10:17:41;100390.98;;;18.73;36.64
31911;BME280;18457;52.432;16.914;2023-04-22T10:20:17;100395.01;;;18.82;34.92
31911;BME280;18457;52.432;16.914;2023-04-22T10:22:53;100398.95;;;19.03;49.71
31911;BME280;18457;52.432;16.914;2023-04-22T10:25:27;100396.53;;;19.16;38.46
31911;BME280;18457;52.432;16.914;2023-04-22T10:28:05;100387.16;;;19.16;35.92
31911;BME280;18457;52.432;16.914;2023-04-22T10:30:38;100389.22;;;19.31;36.31
31911;BME280;18457;52.432;16.914;2023-04-22T10:33:38;100388.45;;;19.47;36.84
31911;BME280;18457;52.432;16.914;2023-04-22T10:36:16;100384.48;;;19.57;35.50
31911;BME280;18457;52.432;16.914;2023-04-22T10:39:16;100384.98;;;19.70;35.38
31911;BME280;18457;52.432;16.914;2023-04-22T10:42:06;100381.61;;;19.86;35.76
31911;BME280;18457;52.432;16.914;2023-04-22T10:44:50;100378.64;;;19.81;34.07
31911;BME280;18457;52.432;16.914;2023-04-22T10:47:30;100380.88;;;19.91;34.84
31911;BME280;18457;52.432;16.914;2023-04-22T10:50:25;100378.92;;;20.05;35.32
31911;BME280;18457;52.432;16.914;2023-04-22T10:52:59;100385.52;;;20.14;34.56
31911;BME280;18457;52.432;16.914;2023-04-22T10:55:51;100376.63;;;20.18;34.50
31911;BME280;18457;52.432;16.914;2023-04-22T10:58:25;100371.25;;;20.28;34.89
31911;BME280;18457;52.432;16.914;2023-04-22T11:00:56;100365.55;;;20.28;34.28
31911;BME280;18457;52.432;16.914;2023-04-22T11:03:33;100360.10;;;20.19;34.13
31911;BME280;18457;52.432;16.914;2023-04-22T11:06:16;100363.83;;;20.38;34.65
31911;BME280;18457;52.432;16.914;2023-04-22T11:08:51;100360.41;;;20.48;33.83
31911;BME280;18457;52.432;16.914;2023-04-22T11:11:38;100361.23;;;20.60;33.94
31911;BME280;18457;52.432;16.914;2023-04-22T11:14:11;100351.91;;;20.59;33.35
31911;BME280;18457;52.432;16.914;2023-04-22T11:16:47;100350.20;;;20.63;33.31
31911;BME280;18457;52.432;16.914;2023-04-22T11:19:22;100350.73;;;20.74;33.82
31911;BME280;18457;52.432;16.914;2023-04-22T11:21:55;100346.06;;;20.92;34.20
31911;BME280;18457;52.432;16.914;2023-04-22T11:24:28;100343.14;;;21.05;34.22
31911;BME280;18457;52.432;16.914;2023-04-22T11:27:01;100342.95;;;21.21;33.81
31911;BME280;18457;52.432;16.914;2023-04-22T11:29:33;100339.31;;;21.26;33.28
31911;BME280;18457;52.432;16.914;2023-04-22T11:32:06;100338.54;;;21.35;33.23
31911;BME280;18457;52.432;16.914;2023-04-22T11:34:41;100333.13;;;21.36;32.56
31911;BME280;18457;52.432;16.914;2023-04-22T11:37:13;100325.95;;;21.20;32.23
31911;BME280;18457;52.432;16.914;2023-04-22T11:39:49;100322.22;;;21.23;32.87
31911;BME280;18457;52.432;16.914;2023-04-22T11:42:42;100324.52;;;21.45;33.28
31911;BME280;18457;52.432;16.914;2023-04-22T11:45:15;100322.45;;;21.59;32.11
31911;BME280;18457;52.432;16.914;2023-04-22T11:47:49;100319.13;;;21.67;32.73
31911;BME280;18457;52.432;16.914;2023-04-22T11:50:24;100318.82;;;21.77;32.20
31911;BME280;18457;52.432;16.914;2023-04-22T11:52:59;100318.44;;;21.90;32.65
31911;BME280;18457;52.432;16.914;2023-04-22T11:55:33;100314.31;;;21.96;32.47
31911;BME280;18457;52.432;16.914;2023-04-22T11:58:11;100315.73;;;21.97;31.64
31911;BME280;18457;52.432;16.914;2023-04-22T12:00:46;100320.29;;;21.92;31.52
31911;BME280;18457;52.432;16.914;2023-04-22T12:03:20;100314.60;;;21.87;31.74
31911;BME280;18457;52.432;16.914;2023-04-22T12:05:57;100311.48;;;21.84;32.16
31911;BME280;18457;52.432;16.914;2023-04-22T12:08:32;100303.14;;;21.80;32.67
31911;BME280;18457;52.432;16.914;2023-04-22T12:11:07;100305.73;;;21.90;32.33
31911;BME280;18457;52.432;16.914;2023-04-22T12:13:43;100300.54;;;21.85;32.62
31911;BME280;18457;52.432;16.914;2023-04-22T12:16:18;100307.88;;;21.83;35.41
31911;BME280;18457;52.432;16.914;2023-04-22T12:18:51;100293.25;;;21.90;37.70
31911;BME280;18457;52.432;16.914;2023-04-22T12:21:25;100291.04;;;21.99;38.23
31911;BME280;18457;52.432;16.914;2023-04-22T12:23:59;100291.52;;;22.08;37.54
31911;BME280;18457;52.432;16.914;2023-04-22T12:26:33;100286.21;;;22.13;38.01
31911;BME280;18457;52.432;16.914;2023-04-22T12:29:07;100283.94;;;22.23;37.38
31911;BME280;18457;52.432;16.914;2023-04-22T12:31:39;100284.54;;;22.25;34.81
31911;BME280;18457;52.432;16.914;2023-04-22T12:34:11;100279.10;;;22.07;32.97
31911;BME280;18457;52.432;16.914;2023-04-22T12:36:43;100277.84;;;22.14;35.82
31911;BME280;18457;52.432;16.914;2023-04-22T12:39:15;100280.64;;;22.13;32.36
31911;BME280;18457;52.432;16.914;2023-04-22T12:41:48;100274.80;;;22.22;35.10
31911;BME280;18457;52.432;16.914;2023-04-22T12:44:19;100269.83;;;22.10;33.18
31911;BME280;18457;52.432;16.914;2023-04-22T12:46:54;100269.36;;;22.14;35.05
31911;BME280;18457;52.432;16.914;2023-04-22T12:49:27;100263.80;;;22.10;33.18
31911;BME280;18457;52.432;16.914;2023-04-22T12:51:59;100263.71;;;22.11;32.92
31911;BME280;18457;52.432;16.914;2023-04-22T12:54:31;100260.34;;;22.24;34.00
31911;BME280;18457;52.432;16.914;2023-04-22T12:57:02;100259.08;;;22.26;32.07
31911;BME280;18457;52.432;16.914;2023-04-22T12:59:34;100253.35;;;22.24;31.16
31911;BME280;18457;52.432;16.914;2023-04-22T13:02:06;100251.83;;;22.27;30.87
31911;BME280;18457;52.432;16.914;2023-04-22T13:04:39;100248.20;;;22.21;31.08
31911;BME280;18457;52.432;16.914;2023-04-22T13:07:11;100243.92;;;21.95;31.44
31911;BME280;18457;52.432;16.914;2023-04-22T13:09:43;100239.25;;;22.03;31.92
31911;BME280;18457;52.432;16.914;2023-04-22T13:12:15;100237.96;;;22.08;31.69
31911;BME280;18457;52.432;16.914;2023-04-22T13:14:47;100233.66;;;22.12;31.59
31911;BME280;18457;52.432;16.914;2023-04-22T13:17:19;100234.09;;;22.18;31.92